createdAt,value
2023-05-14T00:02:02.989Z,12.31
2023-05-14T00:04:29.230Z,12.31
2023-05-14T00:06:55.489Z,12.07
2023-05-14T00:09:21.716Z,11.96
2023-05-14T00:11:47.938Z,11.50
2023-05-14T00:14:14.150Z,11.67
2023-05-14T00:16:40.367Z,11.89
2023-05-14T00:19:06.645Z,11.90
2023-05-14T00:21:32.942Z,11.87
2023-05-14T00:23:59.146Z,11.83
2023-05-14T00:26:25.366Z,11.78
2023-05-14T00:28:51.576Z,11.73
2023-05-14T00:31:17.828Z,11.73
2023-05-14T00:33:44.085Z,11.71
2023-05-14T00:36:10.303Z,11.66
2023-05-14T00:38:36.505Z,11.61
2023-05-14T00:41:02.722Z,11.60
2023-05-14T00:43:28.923Z,11.51
2023-05-14T00:45:55.180Z,11.38
2023-05-14T00:48:21.430Z,11.20
2023-05-14T00:50:47.643Z,11.11
2023-05-14T00:53:13.861Z,11.22
2023-05-14T00:55:40.483Z,11.21
2023-05-14T00:58:07.521Z,11.16
2023-05-14T01:00:33.793Z,11.18
2023-05-14T01:03:00.103Z,11.17
2023-05-14T01:05:26.385Z,11.19
2023-05-14T01:07:58.958Z,11.16
2023-05-14T01:10:27.794Z,11.13
2023-05-14T01:12:59.859Z,11.10
2023-05-14T01:15:26.803Z,10.92
2023-05-14T01:17:59.867Z,10.91
2023-05-14T01:20:26.401Z,10.94
2023-05-14T01:22:52.748Z,10.94
2023-05-14T01:25:18.955Z,10.91
2023-05-14T01:27:45.118Z,10.90
2023-05-14T01:30:17.854Z,10.86
2023-05-14T01:32:44.782Z,10.12
2023-05-14T01:35:11.040Z,10.15
2023-05-14T01:37:37.266Z,10.43
2023-05-14T01:40:03.830Z,10.56
2023-05-14T01:42:30.076Z,10.55
2023-05-14T01:44:56.292Z,10.56
2023-05-14T01:47:22.531Z,10.16
2023-05-14T01:49:48.753Z,10.32
2023-05-14T01:52:14.983Z,10.39
2023-05-14T01:54:41.193Z,10.48
2023-05-14T01:57:07.417Z,10.46
2023-05-14T01:59:33.644Z,10.38
2023-05-14T02:01:59.889Z,10.38
2023-05-14T02:04:26.370Z,10.36
2023-05-14T02:06:52.681Z,10.19
2023-05-14T02:09:18.892Z,10.20
2023-05-14T02:11:45.102Z,10.21
2023-05-14T02:14:11.313Z,10.21
2023-05-14T02:16:37.534Z,10.24
2023-05-14T02:19:03.775Z,10.24
2023-05-14T02:21:30.298Z,10.22
2023-05-14T02:23:56.512Z,10.16
2023-05-14T02:26:22.727Z,10.09
2023-05-14T02:28:48.937Z,10.09
2023-05-14T02:31:15.212Z,9.89
2023-05-14T02:33:41.465Z,9.43
2023-05-14T02:36:07.696Z,9.58
2023-05-14T02:38:33.919Z,9.72
2023-05-14T02:41:00.128Z,9.77
2023-05-14T02:43:26.348Z,9.78
2023-05-14T02:45:52.561Z,9.83
2023-05-14T02:48:18.804Z,9.70
2023-05-14T02:50:45.008Z,9.57
2023-05-14T02:53:11.227Z,9.62
2023-05-14T02:55:37.434Z,9.63
2023-05-14T02:58:03.677Z,9.62
2023-05-14T03:00:29.903Z,9.64
2023-05-14T03:02:56.593Z,9.63
2023-05-14T03:05:23.423Z,9.61
2023-05-14T03:07:50.781Z,9.59
2023-05-14T03:10:17.031Z,9.56
2023-05-14T03:12:43.244Z,9.55
2023-05-14T03:15:09.627Z,9.60
2023-05-14T03:17:36.189Z,9.61
2023-05-14T03:20:02.719Z,9.59
2023-05-14T03:22:28.926Z,9.17
2023-05-14T03:24:55.130Z,8.66
2023-05-14T03:27:21.353Z,8.90
2023-05-14T03:29:47.582Z,9.06
2023-05-14T03:32:13.802Z,9.15
2023-05-14T03:34:40.015Z,9.36
2023-05-14T03:37:06.215Z,9.37
2023-05-14T03:39:32.426Z,9.38
2023-05-14T03:41:58.653Z,9.29
2023-05-14T03:44:25.042Z,9.39
2023-05-14T03:46:51.338Z,9.36
2023-05-14T03:49:17.557Z,9.33
2023-05-14T03:51:43.763Z,9.36
2023-05-14T03:54:10.000Z,9.34
2023-05-14T03:56:36.220Z,9.34
2023-05-14T03:59:02.426Z,9.40
2023-05-14T04:01:28.648Z,9.42
2023-05-14T04:03:55.066Z,9.41
2023-05-14T04:06:21.392Z,9.33
2023-05-14T04:08:47.660Z,9.38
2023-05-14T04:11:13.870Z,9.38
2023-05-14T04:13:40.061Z,9.41
2023-05-14T04:16:06.366Z,9.42
2023-05-14T04:18:32.636Z,9.43
2023-05-14T04:20:58.902Z,9.45
2023-05-14T04:23:25.104Z,9.24
2023-05-14T04:25:51.328Z,9.37
2023-05-14T04:28:17.570Z,9.18
2023-05-14T04:30:43.790Z,9.35
2023-05-14T04:33:10.055Z,9.39
2023-05-14T04:35:36.299Z,9.44
2023-05-14T04:38:02.506Z,9.51
2023-05-14T04:40:28.723Z,9.57
2023-05-14T04:42:54.935Z,9.56
2023-05-14T04:45:21.167Z,9.50
2023-05-14T04:47:47.417Z,9.41
2023-05-14T04:50:13.661Z,9.50
2023-05-14T04:52:39.880Z,9.52
2023-05-14T04:55:06.332Z,9.58
2023-05-14T04:57:32.538Z,9.29
2023-05-14T04:59:58.770Z,9.44
2023-05-14T05:02:25.020Z,9.59
2023-05-14T05:04:51.281Z,9.79
2023-05-14T05:07:17.510Z,9.85
2023-05-14T05:09:43.791Z,10.02
2023-05-14T05:12:10.008Z,10.02
2023-05-14T05:14:36.248Z,10.19
2023-05-14T05:17:02.457Z,10.17
2023-05-14T05:19:39.553Z,10.35
2023-05-14T05:22:09.676Z,10.44
2023-05-14T05:24:35.897Z,10.62
2023-05-14T05:27:02.105Z,10.83
2023-05-14T05:29:28.326Z,10.81
2023-05-14T05:31:54.572Z,10.87
2023-05-14T05:34:20.823Z,10.97
2023-05-14T05:36:47.047Z,10.99
2023-05-14T05:39:13.273Z,10.98
2023-05-14T05:41:39.502Z,11.05
2023-05-14T05:44:05.719Z,11.30
2023-05-14T05:46:31.988Z,11.82
2023-05-14T05:48:58.236Z,12.33
2023-05-14T05:51:24.460Z,13.07
2023-05-14T05:53:50.655Z,14.27
2023-05-14T05:56:16.892Z,14.96
2023-05-14T05:58:43.116Z,15.28
2023-05-14T06:01:09.334Z,15.55
2023-05-14T06:03:35.539Z,17.39
2023-05-14T06:06:01.746Z,18.36
2023-05-14T06:08:27.958Z,17.78
2023-05-14T06:10:54.168Z,18.01
2023-05-14T06:13:20.370Z,17.69
2023-05-14T06:15:46.601Z,18.12
2023-05-14T06:18:12.808Z,17.96
2023-05-14T06:20:39.026Z,18.35
2023-05-14T06:23:05.235Z,18.79
2023-05-14T06:25:31.439Z,19.69
2023-05-14T06:27:57.651Z,20.41
2023-05-14T06:30:24.018Z,21.06
2023-05-14T06:32:50.369Z,21.53
2023-05-14T06:35:16.609Z,21.66
2023-05-14T06:37:42.814Z,21.79
2023-05-14T06:40:09.211Z,21.05
2023-05-14T06:42:35.445Z,21.20
2023-05-14T06:45:01.701Z,20.55
2023-05-14T06:47:27.934Z,20.65
2023-05-14T06:49:54.160Z,19.54
2023-05-14T06:52:20.361Z,19.07
2023-05-14T06:54:46.572Z,18.91
2023-05-14T06:57:12.789Z,19.74
2023-05-14T06:59:39.057Z,19.34
2023-05-14T07:02:05.269Z,19.40
2023-05-14T07:04:31.546Z,20.25
2023-05-14T07:06:57.784Z,20.87
2023-05-14T07:09:23.986Z,20.85
2023-05-14T07:11:50.178Z,21.28
2023-05-14T07:14:16.391Z,21.51
2023-05-14T07:16:42.615Z,21.45
2023-05-14T07:19:08.927Z,21.34
2023-05-14T07:21:35.276Z,21.30
2023-05-14T07:24:01.488Z,21.16
2023-05-14T07:26:27.706Z,20.96
2023-05-14T07:28:53.929Z,20.10
2023-05-14T07:31:20.255Z,19.86
2023-05-14T07:33:46.538Z,20.38
2023-05-14T07:36:12.746Z,20.78
2023-05-14T07:38:38.964Z,20.93
2023-05-14T07:41:05.278Z,20.90
2023-05-14T07:43:31.474Z,20.93
2023-05-14T07:45:57.695Z,20.51
2023-05-14T07:48:23.952Z,20.48
2023-05-14T07:50:50.237Z,20.07
2023-05-14T07:53:16.458Z,20.56
2023-05-14T07:55:42.673Z,21.18
2023-05-14T07:58:08.873Z,21.74
2023-05-14T08:00:35.088Z,21.87
2023-05-14T08:03:01.467Z,22.18
2023-05-14T08:05:27.778Z,22.37
2023-05-14T08:07:53.982Z,22.21
2023-05-14T08:10:20.311Z,21.86
2023-05-14T08:12:46.562Z,21.77
2023-05-14T08:15:12.806Z,20.83
2023-05-14T08:17:39.062Z,19.98
2023-05-14T08:20:05.889Z,19.38
2023-05-14T08:22:32.088Z,19.20
2023-05-14T08:24:58.295Z,19.13
2023-05-14T08:27:24.764Z,18.94
2023-05-14T08:29:50.978Z,19.18
2023-05-14T08:32:23.383Z,19.12
2023-05-14T08:34:50.306Z,19.26
2023-05-14T08:37:16.503Z,19.46
2023-05-14T08:39:42.713Z,19.33
2023-05-14T08:42:08.929Z,19.57
2023-05-14T08:44:48.049Z,19.61
2023-05-14T08:47:14.425Z,20.10
2023-05-14T08:49:41.195Z,20.86
2023-05-14T08:52:07.659Z,21.12
2023-05-14T08:54:34.047Z,20.95
2023-05-14T08:57:00.474Z,20.67
2023-05-14T08:59:26.672Z,20.51
2023-05-14T09:01:53.402Z,20.59
2023-05-14T09:04:20.274Z,20.34
2023-05-14T09:06:47.030Z,20.29
2023-05-14T09:09:13.243Z,20.46
2023-05-14T09:11:42.777Z,20.83
2023-05-14T09:14:09.454Z,21.80
2023-05-14T09:16:35.814Z,21.84
2023-05-14T09:19:02.360Z,21.86
2023-05-14T09:21:28.614Z,22.02
2023-05-14T09:23:54.833Z,21.47
2023-05-14T09:26:23.317Z,22.42
2023-05-14T09:28:49.534Z,22.33
2023-05-14T09:31:15.799Z,22.26
2023-05-14T09:33:42.071Z,22.56
2023-05-14T09:36:08.335Z,22.37
2023-05-14T09:38:34.525Z,22.34
2023-05-14T09:41:00.773Z,22.30
2023-05-14T09:43:26.987Z,22.67
2023-05-14T09:45:53.218Z,23.02
2023-05-14T09:48:19.431Z,23.78
2023-05-14T09:50:45.984Z,24.50
2023-05-14T09:53:12.828Z,24.94
2023-05-14T09:55:39.160Z,23.88
2023-05-14T09:58:05.472Z,24.10
2023-05-14T10:00:31.905Z,23.98
2023-05-14T10:02:58.185Z,24.54
2023-05-14T10:05:24.467Z,24.63
2023-05-14T10:07:51.264Z,24.69
2023-05-14T10:10:21.019Z,24.81
2023-05-14T10:12:58.081Z,24.00
2023-05-14T10:15:26.765Z,23.84
2023-05-14T10:17:55.644Z,24.00
2023-05-14T10:20:22.123Z,23.71
2023-05-14T10:22:48.524Z,24.05
2023-05-14T10:25:14.738Z,23.82
2023-05-14T10:27:40.943Z,23.87
2023-05-14T10:30:10.489Z,24.42
2023-05-14T10:32:36.744Z,24.95
2023-05-14T10:35:06.291Z,24.74
2023-05-14T10:37:32.515Z,24.69
2023-05-14T10:40:02.194Z,25.04
2023-05-14T10:42:29.081Z,24.68
2023-05-14T10:44:56.136Z,24.48
2023-05-14T10:47:22.365Z,24.74
2023-05-14T10:49:48.599Z,24.56
2023-05-14T10:52:17.799Z,24.76
2023-05-14T10:54:57.012Z,24.15
2023-05-14T10:57:23.871Z,23.68
2023-05-14T10:59:51.458Z,22.88
2023-05-14T11:02:20.661Z,22.55
2023-05-14T11:04:52.998Z,22.19
2023-05-14T11:07:20.752Z,21.97
2023-05-14T11:09:46.977Z,21.75
2023-05-14T11:12:13.218Z,21.77
2023-05-14T11:14:39.422Z,22.26
2023-05-14T11:17:05.743Z,22.69
2023-05-14T11:19:31.965Z,22.10
2023-05-14T11:21:58.166Z,22.22
2023-05-14T11:24:24.380Z,22.02
2023-05-14T11:26:50.722Z,21.48
2023-05-14T11:29:16.947Z,21.62
2023-05-14T11:31:43.163Z,21.88
2023-05-14T11:34:09.413Z,21.62
2023-05-14T11:36:38.564Z,21.35
2023-05-14T11:39:04.828Z,21.35
2023-05-14T11:41:31.072Z,21.17
2023-05-14T11:43:57.887Z,21.58
2023-05-14T11:46:24.111Z,21.93
2023-05-14T11:48:50.399Z,21.60
2023-05-14T11:51:16.602Z,21.91
2023-05-14T11:53:42.810Z,22.18
2023-05-14T11:56:10.009Z,22.25
2023-05-14T11:58:36.505Z,22.32
2023-05-14T12:01:02.739Z,22.32
2023-05-14T12:03:30.381Z,22.29
2023-05-14T12:06:00.064Z,22.70
2023-05-14T12:08:26.891Z,23.19
2023-05-14T12:10:53.379Z,23.55
2023-05-14T12:13:19.589Z,23.66
2023-05-14T12:15:46.425Z,23.10
2023-05-14T12:18:23.402Z,23.57
2023-05-14T12:20:50.585Z,23.62
2023-05-14T12:23:16.829Z,23.32
2023-05-14T12:25:50.075Z,23.02
2023-05-14T12:28:16.414Z,22.88
2023-05-14T12:30:42.620Z,23.01
2023-05-14T12:33:08.972Z,22.73
2023-05-14T12:35:35.375Z,23.20
2023-05-14T12:38:01.978Z,23.21
2023-05-14T12:40:28.182Z,23.05
2023-05-14T12:42:56.608Z,23.06
2023-05-14T12:45:23.279Z,23.29
2023-05-14T12:47:49.673Z,22.93
2023-05-14T12:50:15.906Z,22.36
2023-05-14T12:52:42.121Z,22.18
2023-05-14T12:55:08.565Z,22.15
2023-05-14T12:57:34.785Z,21.75
2023-05-14T13:00:01.062Z,21.38
2023-05-14T13:02:27.278Z,19.86
2023-05-14T13:04:53.634Z,19.46
2023-05-14T13:07:19.824Z,19.65
2023-05-14T13:09:46.042Z,19.29
2023-05-14T13:12:12.251Z,19.13
2023-05-14T13:14:38.467Z,19.11
2023-05-14T13:17:04.829Z,19.27
2023-05-14T13:19:31.125Z,19.50
2023-05-14T13:21:57.338Z,19.43
2023-05-14T13:24:23.548Z,19.45
2023-05-14T13:26:49.738Z,19.48
2023-05-14T13:29:15.957Z,19.57
2023-05-14T13:31:42.145Z,19.60
2023-05-14T13:34:08.350Z,19.78
2023-05-14T13:36:34.568Z,19.82
2023-05-14T13:39:00.784Z,19.88
2023-05-14T13:41:27.004Z,19.78
2023-05-14T13:43:53.207Z,19.71
2023-05-14T13:46:19.474Z,20.06
2023-05-14T13:48:45.731Z,20.35
2023-05-14T13:51:11.948Z,20.32
2023-05-14T13:53:38.359Z,20.08
2023-05-14T13:56:04.684Z,20.24
2023-05-14T13:58:30.901Z,20.42
2023-05-14T14:00:57.113Z,20.43
2023-05-14T14:03:23.371Z,20.15
2023-05-14T14:05:49.577Z,19.89
2023-05-14T14:08:23.457Z,20.14
2023-05-14T14:10:50.643Z,20.00
2023-05-14T14:13:16.872Z,20.25
2023-05-14T14:15:43.228Z,20.83
2023-05-14T14:18:09.499Z,21.09
2023-05-14T14:20:35.712Z,21.26
2023-05-14T14:23:01.976Z,21.44
2023-05-14T14:25:28.195Z,21.32
2023-05-14T14:27:54.398Z,21.25
2023-05-14T14:30:20.618Z,21.22
2023-05-14T14:32:47.226Z,21.39
2023-05-14T14:35:15.154Z,21.48
2023-05-14T14:37:41.872Z,21.66
2023-05-14T14:40:08.308Z,21.58
2023-05-14T14:42:34.575Z,21.83
2023-05-14T14:45:00.779Z,21.81
2023-05-14T14:47:27.122Z,21.82
2023-05-14T14:49:53.324Z,21.72
2023-05-14T14:52:19.540Z,21.49
2023-05-14T14:54:45.742Z,21.58
2023-05-14T14:57:11.954Z,21.46
2023-05-14T14:59:38.156Z,20.84
2023-05-14T15:02:04.472Z,20.44
2023-05-14T15:04:30.675Z,20.21
2023-05-14T15:06:56.878Z,19.79
2023-05-14T15:09:27.993Z,19.53
2023-05-14T15:11:54.224Z,19.58
2023-05-14T15:14:20.434Z,19.62
2023-05-14T15:16:48.864Z,19.52
2023-05-14T15:19:16.516Z,19.18
2023-05-14T15:21:42.750Z,19.14
2023-05-14T15:24:12.064Z,19.24
2023-05-14T15:26:38.286Z,19.19
2023-05-14T15:29:04.614Z,19.33
2023-05-14T15:31:30.878Z,19.68
2023-05-14T15:33:57.139Z,19.85
2023-05-14T15:36:23.363Z,20.14
2023-05-14T15:38:49.596Z,20.31
2023-05-14T15:41:15.825Z,20.30
2023-05-14T15:43:42.048Z,19.88
2023-05-14T15:46:08.315Z,19.44
2023-05-14T15:48:34.538Z,19.25
2023-05-14T15:51:00.742Z,19.07
2023-05-14T15:53:26.990Z,18.97
2023-05-14T15:55:53.210Z,19.15
2023-05-14T15:58:19.426Z,19.19
2023-05-14T16:00:45.629Z,18.96
2023-05-14T16:03:11.968Z,18.91
2023-05-14T16:05:38.291Z,18.76
2023-05-14T16:08:04.531Z,18.71
2023-05-14T16:10:30.736Z,18.49
2023-05-14T16:12:56.956Z,18.59
2023-05-14T16:15:23.158Z,18.37
2023-05-14T16:17:49.410Z,18.41
2023-05-14T16:20:15.641Z,17.83
2023-05-14T16:22:41.876Z,18.06
2023-05-14T16:25:08.111Z,18.48
2023-05-14T16:27:34.348Z,18.62
2023-05-14T16:30:00.585Z,18.80
2023-05-14T16:32:26.876Z,18.84
2023-05-14T16:34:53.126Z,18.68
2023-05-14T16:37:19.388Z,18.71
2023-05-14T16:39:45.830Z,18.79
2023-05-14T16:42:12.054Z,18.77
2023-05-14T16:44:38.262Z,18.63
2023-05-14T16:47:04.751Z,18.60
2023-05-14T16:49:30.985Z,18.54
2023-05-14T16:51:57.203Z,18.46
2023-05-14T16:54:23.412Z,18.39
2023-05-14T16:56:53.906Z,18.35
2023-05-14T16:59:20.103Z,18.29
2023-05-14T17:01:46.382Z,18.32
2023-05-14T17:04:12.668Z,18.38
2023-05-14T17:06:38.982Z,18.40
2023-05-14T17:09:05.204Z,18.34
2023-05-14T17:11:31.443Z,18.14
2023-05-14T17:13:57.657Z,18.34
2023-05-14T17:16:23.899Z,18.35
2023-05-14T17:18:50.328Z,18.45
2023-05-14T17:21:16.601Z,18.39
2023-05-14T17:23:42.822Z,18.27
2023-05-14T17:26:09.294Z,18.17
2023-05-14T17:28:35.529Z,18.15
2023-05-14T17:31:01.847Z,18.04
2023-05-14T17:33:28.204Z,17.89
2023-05-14T17:35:54.442Z,17.81
2023-05-14T17:38:20.744Z,17.73
2023-05-14T17:40:46.943Z,17.73
2023-05-14T17:43:13.171Z,17.73
2023-05-14T17:45:52.663Z,17.66
2023-05-14T17:48:20.418Z,17.50
2023-05-14T17:50:46.637Z,17.37
2023-05-14T17:53:12.888Z,17.44
2023-05-14T17:55:39.123Z,17.41
2023-05-14T17:58:05.706Z,17.65
2023-05-14T18:00:31.963Z,17.80
2023-05-14T18:02:58.285Z,17.78
2023-05-14T18:05:24.665Z,17.61
2023-05-14T18:07:51.112Z,17.72
2023-05-14T18:10:17.323Z,17.77
2023-05-14T18:12:43.542Z,17.49
2023-05-14T18:15:09.843Z,17.33
2023-05-14T18:17:36.063Z,16.99
2023-05-14T18:20:02.284Z,16.33
2023-05-14T18:22:28.504Z,16.69
2023-05-14T18:24:54.711Z,16.62
2023-05-14T18:27:20.917Z,16.61
2023-05-14T18:29:47.116Z,17.00
2023-05-14T18:32:13.333Z,17.03
2023-05-14T18:34:39.551Z,16.97
2023-05-14T18:37:05.763Z,17.21
2023-05-14T18:39:31.970Z,17.25
2023-05-14T18:41:58.185Z,17.11
2023-05-14T18:44:24.386Z,17.23
2023-05-14T18:46:50.669Z,17.19
2023-05-14T18:49:16.906Z,17.12
2023-05-14T18:51:43.123Z,17.20
2023-05-14T18:54:09.315Z,17.17
2023-05-14T18:56:35.605Z,17.07
2023-05-14T18:59:01.816Z,17.08
2023-05-14T19:01:28.113Z,17.10
2023-05-14T19:03:54.583Z,17.01
2023-05-14T19:06:20.895Z,16.89
2023-05-14T19:08:47.104Z,16.89
2023-05-14T19:11:13.317Z,16.90
2023-05-14T19:13:39.551Z,16.77
2023-05-14T19:16:05.806Z,16.79
2023-05-14T19:18:32.046Z,16.78
2023-05-14T19:20:58.282Z,16.84
2023-05-14T19:23:24.503Z,16.54
2023-05-14T19:25:50.713Z,16.32
2023-05-14T19:28:16.931Z,16.29
2023-05-14T19:30:43.156Z,16.47
2023-05-14T19:33:09.412Z,16.55
2023-05-14T19:35:35.745Z,16.39
2023-05-14T19:38:01.965Z,16.11
2023-05-14T19:40:28.166Z,16.35
2023-05-14T19:42:54.381Z,15.71
2023-05-14T19:45:20.605Z,16.10
2023-05-14T19:47:46.985Z,16.26
2023-05-14T19:50:13.216Z,16.13
2023-05-14T19:52:39.427Z,16.10
2023-05-14T19:55:05.698Z,16.32
2023-05-14T19:57:31.916Z,16.35
2023-05-14T19:59:58.147Z,16.29
2023-05-14T20:02:24.461Z,16.29
2023-05-14T20:04:50.740Z,15.91
2023-05-14T20:07:16.977Z,16.09
2023-05-14T20:09:43.185Z,16.12
2023-05-14T20:12:09.412Z,16.17
2023-05-14T20:14:35.613Z,16.22
2023-05-14T20:17:01.879Z,16.24
2023-05-14T20:19:28.113Z,16.09
2023-05-14T20:21:54.353Z,15.86
2023-05-14T20:24:20.554Z,15.99
2023-05-14T20:26:46.818Z,16.07
2023-05-14T20:29:13.021Z,15.90
2023-05-14T20:31:39.245Z,15.98
2023-05-14T20:34:05.452Z,15.96
2023-05-14T20:36:31.665Z,16.05
2023-05-14T20:38:57.875Z,15.99
2023-05-14T20:41:24.078Z,16.01
2023-05-14T20:43:50.285Z,15.99
2023-05-14T20:46:16.544Z,15.99
2023-05-14T20:48:42.789Z,15.97
2023-05-14T20:51:09.017Z,15.96
2023-05-14T20:53:35.252Z,15.97
2023-05-14T20:56:01.469Z,15.97
2023-05-14T20:58:27.667Z,15.97
2023-05-14T21:00:53.888Z,15.97
2023-05-14T21:03:20.250Z,15.87
2023-05-14T21:05:46.570Z,15.62
2023-05-14T21:08:12.805Z,15.62
2023-05-14T21:10:39.041Z,15.70
2023-05-14T21:13:05.265Z,15.75
2023-05-14T21:15:31.489Z,15.65
2023-05-14T21:17:57.776Z,15.67
2023-05-14T21:20:24.035Z,15.71
2023-05-14T21:22:50.246Z,15.69
2023-05-14T21:25:16.460Z,15.68
2023-05-14T21:27:42.665Z,15.66
2023-05-14T21:30:09.128Z,15.65
2023-05-14T21:32:35.379Z,15.65
2023-05-14T21:35:01.655Z,15.66
2023-05-14T21:37:27.863Z,15.68
2023-05-14T21:39:54.105Z,15.70
2023-05-14T21:42:20.314Z,15.68
2023-05-14T21:44:46.659Z,15.64
2023-05-14T21:47:12.858Z,15.59
2023-05-14T21:49:39.100Z,15.60
2023-05-14T21:52:05.324Z,15.60
2023-05-14T21:54:31.565Z,14.94
2023-05-14T21:56:57.774Z,15.26
2023-05-14T21:59:23.995Z,15.38
2023-05-14T22:02:06.181Z,15.40
2023-05-14T22:04:33.424Z,15.40
2023-05-14T22:06:59.637Z,15.38
2023-05-14T22:09:25.883Z,15.40
2023-05-14T22:11:52.107Z,15.38
2023-05-14T22:14:18.352Z,15.36
2023-05-14T22:16:44.597Z,15.07
2023-05-14T22:19:10.869Z,14.46
2023-05-14T22:21:37.101Z,14.39
2023-05-14T22:24:03.383Z,14.46
2023-05-14T22:26:29.585Z,14.80
2023-05-14T22:28:55.823Z,14.73
2023-05-14T22:31:22.116Z,14.93
2023-05-14T22:33:48.386Z,15.07
2023-05-14T22:36:14.605Z,15.14
2023-05-14T22:38:40.804Z,15.16
2023-05-14T22:41:07.010Z,15.14
2023-05-14T22:43:33.232Z,15.15
2023-05-14T22:45:59.487Z,15.19
2023-05-14T22:48:25.680Z,14.85
2023-05-14T22:50:51.905Z,14.93
2023-05-14T22:53:18.123Z,15.01
2023-05-14T22:55:44.337Z,14.80
2023-05-14T22:58:10.540Z,14.51
2023-05-14T23:00:36.789Z,14.39
2023-05-14T23:03:03.057Z,14.25
2023-05-14T23:05:29.289Z,14.48
2023-05-14T23:07:55.497Z,14.53
2023-05-14T23:10:21.721Z,14.22
2023-05-14T23:12:47.934Z,14.49
2023-05-14T23:15:14.173Z,14.68
2023-05-14T23:17:40.442Z,14.78
2023-05-14T23:20:07.040Z,14.83
2023-05-14T23:22:33.258Z,14.90
2023-05-14T23:24:59.488Z,14.90
2023-05-14T23:27:25.688Z,14.87
2023-05-14T23:29:51.900Z,14.84
2023-05-14T23:32:18.181Z,14.80
2023-05-14T23:34:44.457Z,14.81
2023-05-14T23:37:10.674Z,14.79
2023-05-14T23:39:36.895Z,14.77
2023-05-14T23:42:03.136Z,14.77
2023-05-14T23:44:29.357Z,14.77
2023-05-14T23:46:55.565Z,14.55
2023-05-14T23:49:21.763Z,14.07
2023-05-14T23:51:47.978Z,14.07
2023-05-14T23:54:14.170Z,14.36
2023-05-14T23:56:40.440Z,14.47
2023-05-14T23:59:06.662Z,14.49
